sensor_id;sensor_type;location;lat;lon;timestamp;pressure;altitude;pressure_sealevel;temperature;humidity
78613;BME280;67933;51.060;3.638;2023-11-21T00:02:12;101202.88;;;6.64;100.00
78613;BME280;67933;51.060;3.638;2023-11-21T00:04:37;101195.69;;;6.67;100.00
78613;BME280;67933;51.060;3.638;2023-11-21T00:07:03;101192.09;;;6.70;100.00
78613;BME280;67933;51.060;3.638;2023-11-21T00:09:28;101201.84;;;6.68;100.00
78613;BME280;67933;51.060;3.638;2023-11-21T00:11:54;101202.75;;;6.67;100.00
78613;BME280;67933;51.060;3.638;2023-11-21T00:14:19;101195.59;;;6.70;100.00
78613;BME280;67933;51.060;3.638;2023-11-21T00:16:44;101193.66;;;6.75;100.00
78613;BME280;67933;51.060;3.638;2023-11-21T00:19:11;101204.09;;;6.78;100.00
78613;BME280;67933;51.060;3.638;2023-11-21T00:21:36;101205.06;;;6.76;100.00
78613;BME280;67933;51.060;3.638;2023-11-21T00:24:02;101209.31;;;6.80;100.00
78613;BME280;67933;51.060;3.638;2023-11-21T00:26:28;101208.28;;;6.84;100.00
78613;BME280;67933;51.060;3.638;2023-11-21T00:28:53;101214.38;;;6.86;100.00
78613;BME280;67933;51.060;3.638;2023-11-21T00:31:19;101206.69;;;6.80;100.00
78613;BME280;67933;51.060;3.638;2023-11-21T00:33:44;101209.25;;;6.81;100.00
78613;BME280;67933;51.060;3.638;2023-11-21T00:36:09;101201.28;;;6.83;100.00
78613;BME280;67933;51.060;3.638;2023-11-21T00:38:36;101202.03;;;6.86;100.00
78613;BME280;67933;51.060;3.638;2023-11-21T00:41:01;101203.81;;;6.86;100.00
78613;BME280;67933;51.060;3.638;2023-11-21T00:43:28;101211.69;;;6.87;100.00
78613;BME280;67933;51.060;3.638;2023-11-21T00:45:53;101217.72;;;6.89;100.00
78613;BME280;67933;51.060;3.638;2023-11-21T00:48:19;101210.59;;;6.93;100.00
78613;BME280;67933;51.060;3.638;2023-11-21T00:50:44;101210.50;;;6.96;100.00
78613;BME280;67933;51.060;3.638;2023-11-21T00:53:10;101209.53;;;6.97;100.00
78613;BME280;67933;51.060;3.638;2023-11-21T00:55:36;101214.81;;;6.97;100.00
78613;BME280;67933;51.060;3.638;2023-11-21T00:58:02;101215.63;;;6.99;100.00
78613;BME280;67933;51.060;3.638;2023-11-21T01:00:29;101211.16;;;7.01;100.00
78613;BME280;67933;51.060;3.638;2023-11-21T01:02:54;101211.13;;;7.03;100.00
78613;BME280;67933;51.060;3.638;2023-11-21T01:05:20;101206.63;;;7.05;100.00
78613;BME280;67933;51.060;3.638;2023-11-21T01:07:45;101211.06;;;7.04;100.00
78613;BME280;67933;51.060;3.638;2023-11-21T01:10:12;101207.72;;;6.99;100.00
78613;BME280;67933;51.060;3.638;2023-11-21T01:12:38;101209.53;;;6.97;100.00
78613;BME280;67933;51.060;3.638;2023-11-21T01:15:05;101222.88;;;6.94;100.00
78613;BME280;67933;51.060;3.638;2023-11-21T01:17:32;101220.47;;;6.88;100.00
78613;BME280;67933;51.060;3.638;2023-11-21T01:20:00;101223.19;;;6.85;100.00
78613;BME280;67933;51.060;3.638;2023-11-21T01:22:25;101233.69;;;6.86;100.00
78613;BME280;67933;51.060;3.638;2023-11-21T01:24:54;101233.56;;;6.89;100.00
78613;BME280;67933;51.060;3.638;2023-11-21T01:27:20;101244.97;;;6.90;100.00
78613;BME280;67933;51.060;3.638;2023-11-21T01:29:45;101247.50;;;6.93;100.00
78613;BME280;67933;51.060;3.638;2023-11-21T01:32:11;101248.28;;;6.97;100.00
78613;BME280;67933;51.060;3.638;2023-11-21T01:34:36;101241.09;;;7.00;100.00
78613;BME280;67933;51.060;3.638;2023-11-21T01:37:02;101242.78;;;7.03;100.00
78613;BME280;67933;51.060;3.638;2023-11-21T01:39:30;101239.13;;;7.05;100.00
78613;BME280;67933;51.060;3.638;2023-11-21T01:41:55;101248.78;;;7.06;100.00
78613;BME280;67933;51.060;3.638;2023-11-21T01:44:23;101254.00;;;7.08;100.00
78613;BME280;67933;51.060;3.638;2023-11-21T01:46:50;101252.13;;;7.11;100.00
78613;BME280;67933;51.060;3.638;2023-11-21T01:49:16;101249.34;;;7.14;100.00
78613;BME280;67933;51.060;3.638;2023-11-21T01:51:45;101253.66;;;7.17;100.00
78613;BME280;67933;51.060;3.638;2023-11-21T01:54:12;101249.25;;;7.17;100.00
78613;BME280;67933;51.060;3.638;2023-11-21T01:56:38;101254.41;;;7.20;100.00
78613;BME280;67933;51.060;3.638;2023-11-21T01:59:04;101249.94;;;7.22;100.00
78613;BME280;67933;51.060;3.638;2023-11-21T02:01:30;101255.22;;;7.22;100.00
78613;BME280;67933;51.060;3.638;2023-11-21T02:03:56;101251.72;;;7.22;100.00
78613;BME280;67933;51.060;3.638;2023-11-21T02:06:22;101257.84;;;7.22;100.00
78613;BME280;67933;51.060;3.638;2023-11-21T02:08:47;101248.16;;;7.23;100.00
78613;BME280;67933;51.060;3.638;2023-11-21T02:11:14;101257.75;;;7.25;100.00
78613;BME280;67933;51.060;3.638;2023-11-21T02:13:39;101261.19;;;7.27;100.00
78613;BME280;67933;51.060;3.638;2023-11-21T02:16:10;101265.44;;;7.31;100.00
78613;BME280;67933;51.060;3.638;2023-11-21T02:18:38;101260.97;;;7.33;100.00
78613;BME280;67933;51.060;3.638;2023-11-21T02:21:04;101264.38;;;7.35;100.00
78613;BME280;67933;51.060;3.638;2023-11-21T02:23:30;101267.84;;;7.38;100.00
78613;BME280;67933;51.060;3.638;2023-11-21T02:25:55;101260.72;;;7.40;100.00
78613;BME280;67933;51.060;3.638;2023-11-21T02:28:21;101267.72;;;7.41;100.00
78613;BME280;67933;51.060;3.638;2023-11-21T02:30:54;101267.72;;;7.41;100.00
78613;BME280;67933;51.060;3.638;2023-11-21T02:33:21;101258.09;;;7.40;100.00
78613;BME280;67933;51.060;3.638;2023-11-21T02:35:46;101260.72;;;7.40;100.00
78613;BME280;67933;51.060;3.638;2023-11-21T02:38:12;101268.59;;;7.41;100.00
78613;BME280;67933;51.060;3.638;2023-11-21T02:40:37;101271.19;;;7.43;100.00
78613;BME280;67933;51.060;3.638;2023-11-21T02:43:03;101265.81;;;7.44;100.00
78613;BME280;67933;51.060;3.638;2023-11-21T02:45:31;101276.31;;;7.46;100.00
78613;BME280;67933;51.060;3.638;2023-11-21T02:47:58;101262.22;;;7.47;100.00
78613;BME280;67933;51.060;3.638;2023-11-21T02:50:24;101262.03;;;7.51;100.00
78613;BME280;67933;51.060;3.638;2023-11-21T02:52:50;101270.81;;;7.52;100.00
78613;BME280;67933;51.060;3.638;2023-11-21T02:55:16;101269.03;;;7.52;100.00
78613;BME280;67933;51.060;3.638;2023-11-21T02:57:41;101261.91;;;7.54;100.00
78613;BME280;67933;51.060;3.638;2023-11-21T03:00:07;101270.59;;;7.58;100.00
78613;BME280;67933;51.060;3.638;2023-11-21T03:02:33;101269.66;;;7.59;100.00
78613;BME280;67933;51.060;3.638;2023-11-21T03:05:02;101276.59;;;7.61;100.00
78613;BME280;67933;51.060;3.638;2023-11-21T03:07:27;101276.53;;;7.63;100.00
78613;BME280;67933;51.060;3.638;2023-11-21T03:09:53;101280.06;;;7.63;100.00
78613;BME280;67933;51.060;3.638;2023-11-21T03:12:18;101283.56;;;7.64;100.00
78613;BME280;67933;51.060;3.638;2023-11-21T03:14:45;101281.78;;;7.64;100.00
78613;BME280;67933;51.060;3.638;2023-11-21T03:17:10;101287.88;;;7.66;100.00
78613;BME280;67933;51.060;3.638;2023-11-21T03:19:36;101279.94;;;7.66;100.00
78613;BME280;67933;51.060;3.638;2023-11-21T03:22:02;101284.22;;;7.69;100.00
78613;BME280;67933;51.060;3.638;2023-11-21T03:24:29;101280.66;;;7.70;100.00
78613;BME280;67933;51.060;3.638;2023-11-21T03:26:54;101292.72;;;7.77;100.00
78613;BME280;67933;51.060;3.638;2023-11-21T03:29:20;101281.28;;;7.77;100.00
78613;BME280;67933;51.060;3.638;2023-11-21T03:31:45;101293.38;;;7.82;100.00
78613;BME280;67933;51.060;3.638;2023-11-21T03:34:16;101287.31;;;7.80;100.00
78613;BME280;67933;51.060;3.638;2023-11-21T03:36:41;101294.34;;;7.81;100.00
78613;BME280;67933;51.060;3.638;2023-11-21T03:39:07;101289.06;;;7.81;100.00
78613;BME280;67933;51.060;3.638;2023-11-21T03:41:32;101287.31;;;7.80;100.00
78613;BME280;67933;51.060;3.638;2023-11-21T03:43:59;101296.03;;;7.82;100.00
78613;BME280;67933;51.060;3.638;2023-11-21T03:46:24;101299.63;;;7.81;100.00
78613;BME280;67933;51.060;3.638;2023-11-21T03:48:50;101305.63;;;7.85;100.00
78613;BME280;67933;51.060;3.638;2023-11-21T03:51:15;101299.38;;;7.87;100.00
78613;BME280;67933;51.060;3.638;2023-11-21T03:53:41;101308.09;;;7.89;100.00
78613;BME280;67933;51.060;3.638;2023-11-21T03:56:07;101315.94;;;7.91;100.00
78613;BME280;67933;51.060;3.638;2023-11-21T03:58:32;101306.94;;;7.96;100.00
78613;BME280;67933;51.060;3.638;2023-11-21T04:00:58;101309.31;;;8.02;100.00
78613;BME280;67933;51.060;3.638;2023-11-21T04:03:23;101310.69;;;8.13;100.00
78613;BME280;67933;51.060;3.638;2023-11-21T04:05:48;101312.88;;;8.23;100.00
78613;BME280;67933;51.060;3.638;2023-11-21T04:08:14;101310.50;;;8.17;100.00
78613;BME280;67933;51.060;3.638;2023-11-21T04:10:39;101309.53;;;8.20;100.00
78613;BME280;67933;51.060;3.638;2023-11-21T04:13:05;101315.84;;;8.16;100.00
78613;BME280;67933;51.060;3.638;2023-11-21T04:15:32;101312.28;;;8.17;100.00
78613;BME280;67933;51.060;3.638;2023-11-21T04:17:57;101321.19;;;8.14;100.00
78613;BME280;67933;51.060;3.638;2023-11-21T04:20:22;101317.75;;;8.12;100.00
78613;BME280;67933;51.060;3.638;2023-11-21T04:22:48;101326.47;;;8.14;100.00
78613;BME280;67933;51.060;3.638;2023-11-21T04:25:15;101328.78;;;8.22;100.00
78613;BME280;67933;51.060;3.638;2023-11-21T04:27:41;101332.13;;;8.27;100.00
78613;BME280;67933;51.060;3.638;2023-11-21T04:30:09;101338.50;;;8.21;100.00
78613;BME280;67933;51.060;3.638;2023-11-21T04:32:35;101338.59;;;8.20;100.00
78613;BME280;67933;51.060;3.638;2023-11-21T04:35:00;101350.13;;;8.17;100.00
78613;BME280;67933;51.060;3.638;2023-11-21T04:37:26;101354.44;;;8.20;100.00
78613;BME280;67933;51.060;3.638;2023-11-21T04:39:51;101351.00;;;8.18;100.00
78613;BME280;67933;51.060;3.638;2023-11-21T04:42:17;101364.25;;;8.16;100.00
78613;BME280;67933;51.060;3.638;2023-11-21T04:44:42;101366.97;;;8.15;100.00
78613;BME280;67933;51.060;3.638;2023-11-21T04:47:09;101366.09;;;8.14;100.00
78613;BME280;67933;51.060;3.638;2023-11-21T04:49:34;101370.47;;;8.15;100.00
78613;BME280;67933;51.060;3.638;2023-11-21T04:52:00;101361.69;;;8.15;100.00
78613;BME280;67933;51.060;3.638;2023-11-21T04:54:26;101372.31;;;8.13;100.00
78613;BME280;67933;51.060;3.638;2023-11-21T04:56:52;101364.31;;;8.15;100.00
78613;BME280;67933;51.060;3.638;2023-11-21T04:59:17;101379.22;;;8.17;100.00
78613;BME280;67933;51.060;3.638;2023-11-21T05:01:43;101386.31;;;8.15;100.00
78613;BME280;67933;51.060;3.638;2023-11-21T05:04:08;101384.50;;;8.17;100.00
78613;BME280;67933;51.060;3.638;2023-11-21T05:06:34;101380.13;;;8.16;100.00
78613;BME280;67933;51.060;3.638;2023-11-21T05:08:59;101386.16;;;8.20;100.00
78613;BME280;67933;51.060;3.638;2023-11-21T05:11:27;101381.75;;;8.20;100.00
78613;BME280;67933;51.060;3.638;2023-11-21T05:13:53;101389.59;;;8.22;100.00
78613;BME280;67933;51.060;3.638;2023-11-21T05:16:21;101399.28;;;8.21;100.00
78613;BME280;67933;51.060;3.638;2023-11-21T05:18:47;101403.66;;;8.22;100.00
78613;BME280;67933;51.060;3.638;2023-11-21T05:21:12;101410.66;;;8.23;100.00
78613;BME280;67933;51.060;3.638;2023-11-21T05:23:38;101407.16;;;8.23;100.00
78613;BME280;67933;51.060;3.638;2023-11-21T05:26:03;101413.22;;;8.26;100.00
78613;BME280;67933;51.060;3.638;2023-11-21T05:28:29;101420.28;;;8.26;100.00
78613;BME280;67933;51.060;3.638;2023-11-21T05:30:54;101415.00;;;8.26;100.00
78613;BME280;67933;51.060;3.638;2023-11-21T05:33:20;101420.28;;;8.26;100.00
78613;BME280;67933;51.060;3.638;2023-11-21T05:35:45;101419.47;;;8.24;100.00
78613;BME280;67933;51.060;3.638;2023-11-21T05:38:11;101417.75;;;8.23;100.00
78613;BME280;67933;51.060;3.638;2023-11-21T05:40:37;101417.75;;;8.23;100.00
78613;BME280;67933;51.060;3.638;2023-11-21T05:43:02;101416.00;;;8.22;100.00
78613;BME280;67933;51.060;3.638;2023-11-21T05:45:28;101435.47;;;8.21;100.00
78613;BME280;67933;51.060;3.638;2023-11-21T05:47:55;101429.38;;;8.19;100.00
78613;BME280;67933;51.060;3.638;2023-11-21T05:50:20;101440.94;;;8.15;100.00
78613;BME280;67933;51.060;3.638;2023-11-21T05:52:47;101433.25;;;8.08;100.00
78613;BME280;67933;51.060;3.638;2023-11-21T05:55:13;101443.94;;;8.05;100.00
78613;BME280;67933;51.060;3.638;2023-11-21T05:57:40;101449.34;;;8.02;100.00
78613;BME280;67933;51.060;3.638;2023-11-21T06:00:07;101455.66;;;7.98;100.00
78613;BME280;67933;51.060;3.638;2023-11-21T06:02:51;101456.69;;;7.94;100.00
78613;BME280;67933;51.060;3.638;2023-11-21T06:05:18;101461.19;;;7.92;100.00
78613;BME280;67933;51.060;3.638;2023-11-21T06:07:44;101462.13;;;7.90;100.00
78613;BME280;67933;51.060;3.638;2023-11-21T06:10:10;101465.78;;;7.87;100.00
78613;BME280;67933;51.060;3.638;2023-11-21T06:12:38;101465.06;;;7.82;100.00
78613;BME280;67933;51.060;3.638;2023-11-21T06:15:04;101478.53;;;7.74;100.00
78613;BME280;67933;51.060;3.638;2023-11-21T06:17:31;101473.50;;;7.68;100.00
78613;BME280;67933;51.060;3.638;2023-11-21T06:19:56;101477.91;;;7.68;100.00
78613;BME280;67933;51.060;3.638;2023-11-21T06:22:22;101476.06;;;7.70;100.00
78613;BME280;67933;51.060;3.638;2023-11-21T06:24:47;101484.81;;;7.72;100.00
78613;BME280;67933;51.060;3.638;2023-11-21T06:27:13;101491.41;;;7.84;100.00
78613;BME280;67933;51.060;3.638;2023-11-21T06:29:38;101486.50;;;7.98;100.00
78613;BME280;67933;51.060;3.638;2023-11-21T06:32:04;101501.53;;;7.97;100.00
78613;BME280;67933;51.060;3.638;2023-11-21T06:34:30;101499.28;;;8.10;100.00
78613;BME280;67933;51.060;3.638;2023-11-21T06:36:56;101494.13;;;8.05;100.00
78613;BME280;67933;51.060;3.638;2023-11-21T06:39:21;101502.16;;;8.04;100.00
78613;BME280;67933;51.060;3.638;2023-11-21T06:41:49;101507.34;;;8.05;100.00
78613;BME280;67933;51.060;3.638;2023-11-21T06:44:14;101513.34;;;8.10;100.00
78613;BME280;67933;51.060;3.638;2023-11-21T06:46:40;101516.69;;;8.16;100.00
78613;BME280;67933;51.060;3.638;2023-11-21T06:49:08;101521.72;;;8.22;100.00
78613;BME280;67933;51.060;3.638;2023-11-21T06:51:33;101525.66;;;8.11;100.00
78613;BME280;67933;51.060;3.638;2023-11-21T06:53:58;101530.34;;;8.03;100.00
78613;BME280;67933;51.060;3.638;2023-11-21T06:56:24;101539.25;;;8.01;100.00
78613;BME280;67933;51.060;3.638;2023-11-21T06:58:49;101541.06;;;7.99;100.00
78613;BME280;67933;51.060;3.638;2023-11-21T07:01:19;101534.59;;;8.07;100.00
78613;BME280;67933;51.060;3.638;2023-11-21T07:03:45;101538.38;;;8.00;100.00
78613;BME280;67933;51.060;3.638;2023-11-21T07:06:10;101539.88;;;8.07;100.00
78613;BME280;67933;51.060;3.638;2023-11-21T07:08:37;101544.28;;;8.07;100.00
78613;BME280;67933;51.060;3.638;2023-11-21T07:11:05;101553.09;;;8.07;100.00
78613;BME280;67933;51.060;3.638;2023-11-21T07:13:30;101559.19;;;8.09;100.00
78613;BME280;67933;51.060;3.638;2023-11-21T07:15:58;101564.25;;;8.16;100.00
78613;BME280;67933;51.060;3.638;2023-11-21T07:18:23;101569.47;;;8.17;100.00
78613;BME280;67933;51.060;3.638;2023-11-21T07:20:49;101567.31;;;8.28;100.00
78613;BME280;67933;51.060;3.638;2023-11-21T07:23:14;101581.25;;;8.33;100.00
78613;BME280;67933;51.060;3.638;2023-11-21T07:25:41;101588.09;;;8.39;100.00
78613;BME280;67933;51.060;3.638;2023-11-21T07:28:08;101583.72;;;8.38;100.00
78613;BME280;67933;51.060;3.638;2023-11-21T07:30:34;101581.03;;;8.39;100.00
78613;BME280;67933;51.060;3.638;2023-11-21T07:32:59;101588.00;;;8.42;100.00
78613;BME280;67933;51.060;3.638;2023-11-21T07:35:24;101595.00;;;8.43;100.00
78613;BME280;67933;51.060;3.638;2023-11-21T07:37:50;101594.50;;;8.57;100.00
78613;BME280;67933;51.060;3.638;2023-11-21T07:40:15;101596.38;;;8.53;100.00
78613;BME280;67933;51.060;3.638;2023-11-21T07:42:42;101596.28;;;8.56;100.00
78613;BME280;67933;51.060;3.638;2023-11-21T07:45:08;101598.00;;;8.57;100.00
78613;BME280;67933;51.060;3.638;2023-11-21T07:47:34;101598.25;;;8.51;100.00
78613;BME280;67933;51.060;3.638;2023-11-21T07:50:00;101597.19;;;8.55;100.00
78613;BME280;67933;51.060;3.638;2023-11-21T07:52:25;101611.03;;;8.62;100.00
78613;BME280;67933;51.060;3.638;2023-11-21T07:54:51;101612.78;;;8.63;100.00
78613;BME280;67933;51.060;3.638;2023-11-21T07:57:16;101616.34;;;8.62;100.00
78613;BME280;67933;51.060;3.638;2023-11-21T07:59:42;101614.44;;;8.65;100.00
78613;BME280;67933;51.060;3.638;2023-11-21T08:02:07;101619.50;;;8.71;100.00
78613;BME280;67933;51.060;3.638;2023-11-21T08:04:33;101616.75;;;8.74;100.00
78613;BME280;67933;51.060;3.638;2023-11-21T08:07:00;101625.38;;;8.79;100.00
78613;BME280;67933;51.060;3.638;2023-11-21T08:09:26;101641.16;;;8.82;100.00
78613;BME280;67933;51.060;3.638;2023-11-21T08:11:52;101639.81;;;8.94;100.00
78613;BME280;67933;51.060;3.638;2023-11-21T08:14:18;101643.06;;;9.01;100.00
78613;BME280;67933;51.060;3.638;2023-11-21T08:16:44;101647.69;;;8.96;100.00
78613;BME280;67933;51.060;3.638;2023-11-21T08:19:10;101659.28;;;8.92;100.00
78613;BME280;67933;51.060;3.638;2023-11-21T08:21:36;101657.75;;;8.86;100.00
78613;BME280;67933;51.060;3.638;2023-11-21T08:24:03;101650.00;;;8.81;100.00
78613;BME280;67933;51.060;3.638;2023-11-21T08:26:29;101660.56;;;8.81;100.00
78613;BME280;67933;51.060;3.638;2023-11-21T08:28:55;101662.41;;;8.79;100.00
78613;BME280;67933;51.060;3.638;2023-11-21T08:31:28;101658.13;;;8.99;100.00
78613;BME280;67933;51.060;3.638;2023-11-21T08:33:54;101653.97;;;10.02;100.00
78613;BME280;67933;51.060;3.638;2023-11-21T08:36:25;101650.66;;;10.97;100.00
78613;BME280;67933;51.060;3.638;2023-11-21T08:38:51;101639.66;;;11.78;100.00
78613;BME280;67933;51.060;3.638;2023-11-21T08:41:20;101645.94;;;12.28;100.00
78613;BME280;67933;51.060;3.638;2023-11-21T08:46:14;101649.09;;;13.18;100.00
78613;BME280;67933;51.060;3.638;2023-11-21T08:48:40;101643.59;;;13.53;100.00
78613;BME280;67933;51.060;3.638;2023-11-21T08:51:06;101654.22;;;13.84;100.00
78613;BME280;67933;51.060;3.638;2023-11-21T08:53:32;101654.94;;;14.32;100.00
78613;BME280;67933;51.060;3.638;2023-11-21T08:55:58;101657.72;;;14.44;100.00
78613;BME280;67933;51.060;3.638;2023-11-21T08:58:23;101661.09;;;14.76;100.00
78613;BME280;67933;51.060;3.638;2023-11-21T09:00:49;101670.25;;;15.00;100.00
78613;BME280;67933;51.060;3.638;2023-11-21T09:03:14;101663.72;;;15.33;100.00
78613;BME280;67933;51.060;3.638;2023-11-21T09:05:40;101671.88;;;15.58;100.00
78613;BME280;67933;51.060;3.638;2023-11-21T09:08:05;101676.66;;;15.67;100.00
78613;BME280;67933;51.060;3.638;2023-11-21T09:10:33;101678.38;;;15.68;100.00
78613;BME280;67933;51.060;3.638;2023-11-21T09:13:01;101679.34;;;16.07;100.00
78613;BME280;67933;51.060;3.638;2023-11-21T09:15:27;101676.69;;;16.07;100.00
78613;BME280;67933;51.060;3.638;2023-11-21T09:17:53;101679.75;;;16.40;100.00
78613;BME280;67933;51.060;3.638;2023-11-21T09:20:19;101681.22;;;16.57;100.00
78613;BME280;67933;51.060;3.638;2023-11-21T09:22:48;101684.78;;;16.45;100.00
78613;BME280;67933;51.060;3.638;2023-11-21T09:25:14;101694.66;;;15.23;100.00
78613;BME280;67933;51.060;3.638;2023-11-21T09:27:39;101690.81;;;14.56;100.00
78613;BME280;67933;51.060;3.638;2023-11-21T09:30:06;101703.22;;;13.97;100.00
78613;BME280;67933;51.060;3.638;2023-11-21T09:32:34;101708.31;;;14.76;100.00
78613;BME280;67933;51.060;3.638;2023-11-21T09:35:02;101714.59;;;14.31;100.00
78613;BME280;67933;51.060;3.638;2023-11-21T09:37:27;101719.38;;;13.94;100.00
78613;BME280;67933;51.060;3.638;2023-11-21T09:39:53;101720.28;;;13.63;100.00
78613;BME280;67933;51.060;3.638;2023-11-21T09:42:30;101730.84;;;13.33;100.00
78613;BME280;67933;51.060;3.638;2023-11-21T09:45:12;101747.19;;;13.10;100.00
78613;BME280;67933;51.060;3.638;2023-11-21T09:47:42;101748.88;;;12.95;100.00
78613;BME280;67933;51.060;3.638;2023-11-21T09:50:08;101745.75;;;12.87;100.00
78613;BME280;67933;51.060;3.638;2023-11-21T09:52:54;101763.38;;;12.72;100.00
78613;BME280;67933;51.060;3.638;2023-11-21T09:55:21;101755.56;;;12.69;100.00
78613;BME280;67933;51.060;3.638;2023-11-21T09:57:47;101760.44;;;12.61;100.00
78613;BME280;67933;51.060;3.638;2023-11-21T10:00:16;101760.25;;;12.47;100.00
78613;BME280;67933;51.060;3.638;2023-11-21T10:02:43;101759.31;;;12.48;100.00
78613;BME280;67933;51.060;3.638;2023-11-21T10:05:09;101775.53;;;12.61;100.00
78613;BME280;67933;51.060;3.638;2023-11-21T10:07:36;101768.41;;;12.61;100.00
78613;BME280;67933;51.060;3.638;2023-11-21T10:10:05;101778.69;;;12.69;100.00
78613;BME280;67933;51.060;3.638;2023-11-21T10:12:32;101785.81;;;12.68;100.00
78613;BME280;67933;51.060;3.638;2023-11-21T10:14:59;101790.94;;;12.71;100.00
78613;BME280;67933;51.060;3.638;2023-11-21T10:17:27;101797.06;;;12.56;100.00
78613;BME280;67933;51.060;3.638;2023-11-21T10:19:56;101800.09;;;12.49;100.00
78613;BME280;67933;51.060;3.638;2023-11-21T10:22:22;101815.53;;;12.42;100.00
78613;BME280;67933;51.060;3.638;2023-11-21T10:24:49;101812.00;;;12.42;100.00
78613;BME280;67933;51.060;3.638;2023-11-21T10:27:14;101819.91;;;12.43;100.00
78613;BME280;67933;51.060;3.638;2023-11-21T10:29:39;101833.91;;;12.47;100.00
78613;BME280;67933;51.060;3.638;2023-11-21T10:32:05;101832.22;;;12.63;100.00
78613;BME280;67933;51.060;3.638;2023-11-21T10:34:31;101835.00;;;15.16;100.00
78613;BME280;67933;51.060;3.638;2023-11-21T10:36:57;101822.50;;;17.07;100.00
78613;BME280;67933;51.060;3.638;2023-11-21T10:39:24;101822.81;;;17.15;100.00
78613;BME280;67933;51.060;3.638;2023-11-21T10:41:53;101816.03;;;16.97;100.00
78613;BME280;67933;51.060;3.638;2023-11-21T10:44:20;101815.28;;;17.58;100.00
78613;BME280;67933;51.060;3.638;2023-11-21T10:46:50;101825.66;;;16.62;100.00
78613;BME280;67933;51.060;3.638;2023-11-21T10:49:20;101824.94;;;15.63;100.00
78613;BME280;67933;51.060;3.638;2023-11-21T10:51:46;101825.97;;;14.88;100.00
78613;BME280;67933;51.060;3.638;2023-11-21T10:54:17;101832.72;;;14.18;100.00
78613;BME280;67933;51.060;3.638;2023-11-21T10:56:42;101828.31;;;13.55;100.00
78613;BME280;67933;51.060;3.638;2023-11-21T10:59:12;101838.91;;;13.23;100.00
78613;BME280;67933;51.060;3.638;2023-11-21T11:01:42;101834.03;;;13.14;100.00
78613;BME280;67933;51.060;3.638;2023-11-21T11:04:09;101836.03;;;13.09;100.00
78613;BME280;67933;51.060;3.638;2023-11-21T11:06:43;101835.97;;;12.93;100.00
78613;BME280;67933;51.060;3.638;2023-11-21T11:09:11;101836.94;;;12.75;100.00
78613;BME280;67933;51.060;3.638;2023-11-21T11:11:42;101836.22;;;12.71;100.00
78613;BME280;67933;51.060;3.638;2023-11-21T11:14:13;101834.25;;;12.58;100.00
78613;BME280;67933;51.060;3.638;2023-11-21T11:16:39;101836.13;;;12.56;100.00
78613;BME280;67933;51.060;3.638;2023-11-21T11:19:09;101836.66;;;12.62;100.00
78613;BME280;67933;51.060;3.638;2023-11-21T11:27:30;101832.75;;;12.87;100.00
78613;BME280;67933;51.060;3.638;2023-11-21T11:30:09;101835.22;;;12.74;100.00
78613;BME280;67933;51.060;3.638;2023-11-21T11:36:01;101832.97;;;12.48;100.00
78613;BME280;67933;51.060;3.638;2023-11-21T11:38:33;101833.25;;;12.24;100.00
78613;BME280;67933;51.060;3.638;2023-11-21T11:41:02;101844.25;;;12.17;100.00
78613;BME280;67933;51.060;3.638;2023-11-21T11:43:29;101844.84;;;12.05;100.00
78613;BME280;67933;51.060;3.638;2023-11-21T11:45:57;101834.16;;;12.06;100.00
78613;BME280;67933;51.060;3.638;2023-11-21T11:48:24;101837.63;;;12.25;100.00
78613;BME280;67933;51.060;3.638;2023-11-21T11:51:25;101841.44;;;12.56;100.00
78613;BME280;67933;51.060;3.638;2023-11-21T11:53:51;101837.00;;;12.91;100.00
78613;BME280;67933;51.060;3.638;2023-11-21T11:58:48;101844.69;;;13.96;100.00
78613;BME280;67933;51.060;3.638;2023-11-21T12:01:16;101843.19;;;14.98;100.00
78613;BME280;67933;51.060;3.638;2023-11-21T12:03:44;101838.16;;;15.08;100.00
78613;BME280;67933;51.060;3.638;2023-11-21T12:06:09;101851.16;;;14.84;100.00
78613;BME280;67933;51.060;3.638;2023-11-21T12:08:37;101850.22;;;14.24;100.00
78613;BME280;67933;51.060;3.638;2023-11-21T12:11:03;101852.09;;;14.06;100.00
78613;BME280;67933;51.060;3.638;2023-11-21T12:13:29;101853.28;;;13.69;100.00
78613;BME280;67933;51.060;3.638;2023-11-21T12:15:55;101856.88;;;13.35;100.00
78613;BME280;67933;51.060;3.638;2023-11-21T12:18:21;101856.34;;;13.11;100.00
78613;BME280;67933;51.060;3.638;2023-11-21T12:20:47;101853.44;;;12.82;100.00
78613;BME280;67933;51.060;3.638;2023-11-21T12:23:15;101866.44;;;12.53;100.00
78613;BME280;67933;51.060;3.638;2023-11-21T12:25:42;101863.44;;;12.42;100.00
78613;BME280;67933;51.060;3.638;2023-11-21T12:28:08;101860.22;;;12.17;100.00
78613;BME280;67933;51.060;3.638;2023-11-21T12:30:35;101872.88;;;11.93;100.00
78613;BME280;67933;51.060;3.638;2023-11-21T12:33:02;101864.41;;;11.85;100.00
78613;BME280;67933;51.060;3.638;2023-11-21T12:35:29;101873.78;;;11.73;100.00
78613;BME280;67933;51.060;3.638;2023-11-21T12:37:56;101881.88;;;11.70;100.00
78613;BME280;67933;51.060;3.638;2023-11-21T12:40:25;101886.03;;;11.57;100.00
78613;BME280;67933;51.060;3.638;2023-11-21T12:42:56;101885.06;;;11.60;100.00
78613;BME280;67933;51.060;3.638;2023-11-21T12:45:24;101875.41;;;11.57;100.00
78613;BME280;67933;51.060;3.638;2023-11-21T12:47:59;101885.91;;;11.60;100.00
78613;BME280;67933;51.060;3.638;2023-11-21T12:50:26;101887.50;;;11.64;100.00
78613;BME280;67933;51.060;3.638;2023-11-21T12:53:08;101891.06;;;11.63;100.00
78613;BME280;67933;51.060;3.638;2023-11-21T12:55:35;101896.19;;;11.68;100.00
78613;BME280;67933;51.060;3.638;2023-11-21T12:58:06;101905.91;;;11.69;100.00
78613;BME280;67933;51.060;3.638;2023-11-21T13:00:44;101904.81;;;11.73;100.00